createdAt,value
2018-05-21T00:00:35.232Z,6.20
2018-05-21T00:03:01.440Z,10.17
2018-05-21T00:05:28.407Z,9.20
2018-05-21T00:07:55.420Z,7.70
2018-05-21T00:10:21.655Z,9.13
2018-05-21T00:12:47.867Z,7.67
2018-05-21T00:15:14.369Z,6.90
2018-05-21T00:17:40.576Z,7.97
2018-05-21T00:20:06.795Z,7.27
2018-05-21T00:22:33.057Z,9.90
2018-05-21T00:24:59.271Z,5.23
2018-05-21T00:27:25.496Z,6.87
2018-05-21T00:29:52.486Z,8.20
2018-05-21T00:32:18.698Z,8.13
2018-05-21T00:34:44.920Z,8.70
2018-05-21T00:37:11.930Z,7.97
2018-05-21T00:39:38.168Z,10.77
2018-05-21T00:42:04.399Z,8.23
2018-05-21T00:44:30.648Z,8.80
2018-05-21T00:46:56.874Z,9.03
2018-05-21T00:49:23.092Z,9.93
2018-05-21T00:51:50.069Z,11.07
2018-05-21T00:54:16.304Z,12.30
2018-05-21T00:56:42.526Z,10.10
2018-05-21T00:59:09.502Z,13.30
2018-05-21T01:01:35.721Z,11.90
2018-05-21T01:04:02.687Z,12.33
2018-05-21T01:06:29.328Z,12.60
2018-05-21T01:08:56.296Z,10.30
2018-05-21T01:11:23.257Z,12.73
2018-05-21T01:13:50.254Z,9.80
2018-05-21T01:16:16.488Z,17.73
2018-05-21T01:18:42.685Z,9.40
2018-05-21T01:21:09.684Z,10.30
2018-05-21T01:23:35.904Z,14.17
2018-05-21T01:26:02.163Z,11.00
2018-05-21T01:28:28.580Z,14.33
2018-05-21T01:30:54.789Z,19.10
2018-05-21T01:33:20.987Z,15.20
2018-05-21T01:35:47.245Z,10.10
2018-05-21T01:38:13.473Z,14.03
2018-05-21T01:40:39.773Z,9.93
2018-05-21T01:43:06.758Z,10.90
2018-05-21T01:45:32.973Z,13.77
2018-05-21T01:47:59.929Z,9.70
2018-05-21T01:50:26.928Z,9.00
2018-05-21T01:52:53.152Z,10.30
2018-05-21T01:55:19.383Z,12.63
2018-05-21T01:57:45.625Z,9.63
2018-05-21T02:00:11.835Z,11.70
2018-05-21T02:02:38.787Z,15.00
2018-05-21T02:05:05.033Z,10.90
2018-05-21T02:07:31.273Z,8.87
2018-05-21T02:09:57.489Z,14.20
2018-05-21T02:12:23.821Z,8.90
2018-05-21T02:14:50.042Z,12.90
2018-05-21T02:17:16.245Z,11.63
2018-05-21T02:19:43.379Z,11.03
2018-05-21T02:22:09.593Z,10.23
2018-05-21T02:24:35.809Z,8.80
2018-05-21T02:27:02.160Z,9.47
2018-05-21T02:29:28.291Z,10.30
2018-05-21T02:31:54.497Z,17.47
2018-05-21T02:34:20.742Z,10.70
2018-05-21T02:36:47.689Z,10.30
2018-05-21T02:39:13.901Z,10.77
2018-05-21T02:41:40.505Z,11.57
2018-05-21T02:44:07.486Z,9.37
2018-05-21T02:46:33.700Z,9.77
2018-05-21T02:49:00.700Z,10.70
2018-05-21T02:51:26.944Z,9.87
2018-05-21T02:53:53.149Z,10.38
2018-05-21T02:56:19.413Z,10.90
2018-05-21T02:58:45.627Z,8.88
2018-05-21T03:01:11.834Z,9.52
2018-05-21T03:03:38.078Z,14.48
2018-05-21T03:06:04.324Z,11.50
2018-05-21T03:08:31.261Z,12.63
2018-05-21T03:10:57.516Z,12.68
2018-05-21T03:13:23.745Z,13.40
2018-05-21T03:15:49.977Z,14.40
2018-05-21T03:18:16.332Z,14.60
2018-05-21T03:20:42.647Z,10.13
2018-05-21T03:23:08.952Z,11.98
2018-05-21T03:25:35.232Z,17.55
2018-05-21T03:28:01.445Z,9.90
2018-05-21T03:30:27.666Z,11.65
2018-05-21T03:32:54.645Z,10.13
2018-05-21T03:35:20.884Z,12.07
2018-05-21T03:37:47.132Z,9.35
2018-05-21T03:40:13.533Z,10.60
2018-05-21T03:42:39.997Z,11.52
2018-05-21T03:45:06.213Z,11.55
2018-05-21T03:47:32.446Z,12.32
2018-05-21T03:49:58.669Z,13.60
2018-05-21T03:52:24.894Z,15.05
2018-05-21T03:54:51.141Z,14.43
2018-05-21T03:57:17.364Z,10.88
2018-05-21T03:59:55.875Z,9.85
2018-05-21T04:02:34.315Z,11.07
2018-05-21T04:05:00.559Z,12.02
2018-05-21T04:07:26.769Z,10.65
2018-05-21T04:09:53.759Z,10.48
2018-05-21T04:12:20.149Z,11.20
2018-05-21T04:14:46.362Z,16.42
2018-05-21T04:17:12.617Z,10.32
2018-05-21T04:19:39.335Z,12.23
2018-05-21T04:22:05.542Z,13.77
2018-05-21T04:24:32.507Z,11.48
2018-05-21T04:26:59.473Z,13.23
2018-05-21T04:29:26.433Z,13.55
2018-05-21T04:31:52.669Z,11.98
2018-05-21T04:34:18.913Z,15.95
2018-05-21T04:36:45.131Z,12.50
2018-05-21T04:39:12.102Z,13.20
2018-05-21T04:41:38.347Z,13.55
2018-05-21T04:44:04.887Z,15.07
2018-05-21T04:46:31.857Z,17.33
2018-05-21T04:48:58.105Z,13.03
2018-05-21T04:51:24.333Z,14.23
2018-05-21T04:53:51.305Z,13.70
2018-05-21T04:56:17.571Z,14.63
2018-05-21T04:58:43.781Z,11.47
2018-05-21T05:01:10.006Z,15.30
2018-05-21T05:03:36.989Z,13.23
2018-05-21T05:06:03.233Z,20.00
2018-05-21T05:08:29.470Z,10.97
2018-05-21T05:10:55.718Z,12.07
2018-05-21T05:13:21.936Z,14.50
2018-05-21T05:15:48.892Z,14.07
2018-05-21T05:18:15.138Z,12.13
2018-05-21T05:20:41.395Z,12.30
2018-05-21T05:23:07.642Z,18.80
2018-05-21T05:25:33.886Z,10.53
2018-05-21T05:28:00.108Z,13.70
2018-05-21T05:30:26.354Z,13.50
2018-05-21T05:32:52.606Z,11.60
2018-05-21T05:35:18.822Z,12.53
2018-05-21T05:37:45.042Z,12.27
2018-05-21T05:40:12.017Z,13.10
2018-05-21T05:42:38.962Z,11.87
2018-05-21T05:45:06.075Z,11.90
2018-05-21T05:47:32.312Z,12.07
2018-05-21T05:49:58.537Z,14.07
2018-05-21T05:52:24.755Z,13.07
2018-05-21T05:54:51.039Z,13.20
2018-05-21T05:57:17.295Z,15.30
2018-05-21T05:59:43.514Z,13.07
2018-05-21T06:02:09.782Z,10.90
2018-05-21T06:04:36.020Z,13.03
2018-05-21T06:07:02.277Z,11.40
2018-05-21T06:09:29.284Z,12.47
2018-05-21T06:11:55.524Z,11.57
2018-05-21T06:14:21.757Z,10.93
2018-05-21T06:16:48.066Z,13.80
2018-05-21T06:19:15.028Z,13.53
2018-05-21T06:21:41.980Z,14.90
2018-05-21T06:24:08.979Z,16.07
2018-05-21T06:26:35.189Z,10.13
2018-05-21T06:29:02.236Z,8.77
2018-05-21T06:31:29.239Z,8.77
2018-05-21T06:33:55.562Z,11.17
2018-05-21T06:36:21.742Z,11.83
2018-05-21T06:38:48.005Z,10.27
2018-05-21T06:41:14.238Z,11.13
2018-05-21T06:43:40.504Z,12.67
2018-05-21T06:46:07.038Z,11.30
2018-05-21T06:48:33.307Z,9.90
2018-05-21T06:50:59.549Z,11.30
2018-05-21T06:53:25.817Z,10.50
2018-05-21T06:55:52.045Z,12.73
2018-05-21T06:58:18.245Z,12.83
2018-05-21T07:00:44.494Z,15.13
2018-05-21T07:03:11.465Z,16.10
2018-05-21T07:05:38.424Z,10.90
2018-05-21T07:08:04.764Z,8.90
2018-05-21T07:10:30.943Z,13.10
2018-05-21T07:12:57.167Z,14.83
2018-05-21T07:15:23.442Z,10.70
2018-05-21T07:17:49.681Z,11.30
2018-05-21T07:20:15.901Z,9.87
2018-05-21T07:22:42.148Z,8.40
2018-05-21T07:25:08.386Z,13.50
2018-05-21T07:27:34.604Z,9.70
2018-05-21T07:30:00.904Z,10.63
2018-05-21T07:32:27.131Z,12.13
2018-05-21T07:34:53.356Z,11.50
2018-05-21T07:37:19.620Z,13.20
2018-05-21T07:39:45.861Z,9.27
2018-05-21T07:42:12.082Z,11.23
2018-05-21T07:44:38.322Z,10.13
2018-05-21T07:47:04.946Z,14.47
2018-05-21T07:49:31.160Z,8.50
2018-05-21T07:51:58.149Z,12.43
2018-05-21T07:54:24.382Z,9.70
2018-05-21T07:56:50.610Z,11.77
2018-05-21T07:59:16.851Z,9.90
2018-05-21T08:01:43.134Z,8.87
2018-05-21T08:04:09.334Z,10.73
2018-05-21T08:06:35.597Z,10.97
2018-05-21T08:09:01.843Z,10.40
2018-05-21T08:11:28.105Z,8.20
2018-05-21T08:13:54.357Z,8.60
2018-05-21T08:16:21.330Z,11.07
2018-05-21T08:18:48.296Z,13.43
2018-05-21T08:21:14.540Z,9.80
2018-05-21T08:23:40.771Z,9.80
2018-05-21T08:26:07.736Z,6.57
2018-05-21T08:28:34.078Z,7.87
2018-05-21T08:31:01.067Z,7.73
2018-05-21T08:33:27.321Z,9.43
2018-05-21T08:35:53.586Z,7.50
2018-05-21T08:38:19.825Z,8.33
2018-05-21T08:40:46.107Z,8.50
2018-05-21T08:43:12.461Z,7.30
2018-05-21T08:45:38.676Z,9.80
2018-05-21T08:48:05.848Z,10.07
2018-05-21T08:50:32.844Z,8.30
2018-05-21T08:52:59.062Z,11.23
2018-05-21T08:55:25.281Z,7.30
2018-05-21T08:57:51.531Z,7.77
2018-05-21T09:00:17.862Z,10.93
2018-05-21T09:02:44.029Z,12.60
2018-05-21T09:05:10.283Z,9.67
2018-05-21T09:07:36.497Z,8.93
2018-05-21T09:10:02.789Z,8.40
2018-05-21T09:12:29.079Z,8.03
2018-05-21T09:14:56.045Z,7.43
2018-05-21T09:17:22.287Z,7.80
2018-05-21T09:19:48.531Z,7.07
2018-05-21T09:22:14.769Z,12.33
2018-05-21T09:24:41.436Z,7.80
2018-05-21T09:27:07.871Z,7.07
2018-05-21T09:29:34.167Z,8.17
2018-05-21T09:32:00.406Z,7.23
2018-05-21T09:34:27.419Z,8.50
2018-05-21T09:36:53.654Z,7.10
2018-05-21T09:39:19.883Z,9.60
2018-05-21T09:41:46.288Z,9.17
2018-05-21T09:44:12.559Z,12.87
2018-05-21T09:46:38.794Z,7.87
2018-05-21T09:49:06.015Z,5.37
2018-05-21T09:51:32.967Z,5.77
2018-05-21T09:53:59.260Z,6.57
2018-05-21T09:56:25.777Z,8.53
2018-05-21T09:58:51.990Z,6.37
2018-05-21T10:01:18.204Z,7.30
2018-05-21T10:03:44.445Z,7.80
2018-05-21T10:06:10.686Z,6.10
2018-05-21T10:08:36.932Z,6.27
2018-05-21T10:11:03.191Z,5.23
2018-05-21T10:13:29.415Z,5.77
2018-05-21T10:15:55.665Z,4.90
2018-05-21T10:18:21.933Z,7.03
2018-05-21T10:20:48.144Z,4.90
2018-05-21T10:23:14.370Z,4.90
2018-05-21T10:25:40.608Z,4.07
2018-05-21T10:28:06.832Z,4.87
2018-05-21T10:30:33.799Z,6.10
2018-05-21T10:33:00.056Z,4.40
2018-05-21T10:35:26.287Z,6.07
2018-05-21T10:37:52.521Z,4.83
2018-05-21T10:40:18.911Z,5.10
2018-05-21T10:42:45.143Z,3.93
2018-05-21T10:45:11.388Z,4.83
2018-05-21T10:47:37.635Z,4.40
2018-05-21T10:50:04.022Z,3.43
2018-05-21T10:52:31.003Z,4.20
2018-05-21T10:54:57.289Z,5.23
2018-05-21T10:57:23.539Z,4.10
2018-05-21T10:59:49.758Z,3.53
2018-05-21T11:02:16.023Z,4.57
2018-05-21T11:04:42.332Z,4.70
2018-05-21T11:07:08.476Z,4.73
2018-05-21T11:09:34.729Z,12.30
2018-05-21T11:12:00.978Z,5.27
2018-05-21T11:14:27.218Z,4.27
2018-05-21T11:16:53.490Z,5.53
2018-05-21T11:19:19.729Z,3.90
2018-05-21T11:21:46.706Z,3.17
2018-05-21T11:24:12.982Z,4.20
2018-05-21T11:26:39.245Z,6.23
2018-05-21T11:29:05.490Z,4.67
2018-05-21T11:31:31.760Z,3.63
2018-05-21T11:33:58.478Z,3.30
2018-05-21T11:36:26.045Z,3.00
2018-05-21T11:38:52.357Z,3.80
2018-05-21T11:41:18.599Z,3.57
2018-05-21T11:43:44.818Z,5.23
2018-05-21T11:46:11.060Z,3.37
2018-05-21T11:48:37.306Z,4.47
2018-05-21T11:51:03.975Z,3.40
2018-05-21T11:53:30.216Z,4.20
2018-05-21T11:55:56.461Z,3.47
2018-05-21T11:58:22.705Z,3.67
2018-05-21T12:00:49.276Z,6.30
2018-05-21T12:03:16.267Z,8.10
2018-05-21T12:05:42.489Z,10.97
2018-05-21T12:08:08.740Z,10.10
2018-05-21T12:10:34.994Z,6.37
2018-05-21T12:13:01.203Z,5.10
2018-05-21T12:15:28.192Z,6.70
2018-05-21T12:17:54.451Z,4.90
2018-05-21T12:20:20.688Z,6.67
2018-05-21T12:22:46.938Z,5.30
2018-05-21T12:25:13.166Z,9.60
2018-05-21T12:27:39.395Z,4.87
2018-05-21T12:30:05.655Z,8.40
2018-05-21T12:32:31.874Z,5.13
2018-05-21T12:34:58.110Z,6.53
2018-05-21T12:37:24.488Z,5.13
2018-05-21T12:39:50.721Z,5.67
2018-05-21T12:42:16.949Z,4.37
2018-05-21T12:44:43.184Z,5.80
2018-05-21T12:47:09.423Z,5.80
2018-05-21T12:49:35.673Z,12.30
2018-05-21T12:52:02.394Z,12.43
2018-05-21T12:54:28.628Z,3.23
2018-05-21T12:56:55.611Z,12.37
2018-05-21T12:59:21.912Z,3.63
2018-05-21T13:01:48.134Z,6.63
2018-05-21T13:04:14.356Z,4.10
2018-05-21T13:06:40.627Z,4.17
2018-05-21T13:09:06.846Z,4.57
2018-05-21T13:11:33.690Z,3.00
2018-05-21T13:14:00.616Z,7.87
2018-05-21T13:16:27.995Z,4.70
2018-05-21T13:18:54.481Z,3.40
2018-05-21T13:21:20.736Z,4.00
2018-05-21T13:23:46.955Z,6.33
2018-05-21T13:26:13.195Z,3.90
2018-05-21T13:28:39.492Z,3.97
2018-05-21T13:31:07.427Z,4.67
2018-05-21T13:33:33.666Z,5.20
2018-05-21T13:36:00.684Z,7.70
2018-05-21T13:38:28.896Z,5.33
2018-05-21T13:40:55.710Z,5.20
2018-05-21T13:43:22.781Z,4.63
2018-05-21T13:45:49.018Z,5.20
2018-05-21T13:48:15.247Z,6.50
2018-05-21T13:50:41.525Z,6.20
2018-05-21T13:53:07.993Z,5.60
2018-05-21T13:55:34.213Z,4.90
2018-05-21T13:58:00.484Z,6.03
2018-05-21T14:00:26.723Z,6.03
2018-05-21T14:02:52.958Z,4.40
2018-05-21T14:05:19.232Z,5.83
2018-05-21T14:07:46.203Z,5.07
2018-05-21T14:10:12.432Z,5.53
2018-05-21T14:12:39.540Z,4.53
2018-05-21T14:15:05.691Z,5.40
2018-05-21T14:17:31.919Z,5.50
2018-05-21T14:19:58.183Z,5.40
2018-05-21T14:22:24.429Z,9.70
2018-05-21T14:24:50.649Z,8.30
2018-05-21T14:27:16.902Z,6.70
2018-05-21T14:29:43.172Z,8.50
2018-05-21T14:32:09.399Z,8.10
2018-05-21T14:34:35.662Z,4.93
2018-05-21T14:37:02.639Z,8.10
2018-05-21T14:39:28.891Z,6.73
2018-05-21T14:41:55.131Z,4.90
2018-05-21T14:44:21.357Z,4.57
2018-05-21T14:46:47.608Z,4.47
2018-05-21T14:49:13.861Z,4.80
2018-05-21T14:51:40.102Z,5.43
2018-05-21T14:54:07.077Z,4.80
2018-05-21T14:56:33.240Z,4.07
2018-05-21T14:58:59.466Z,4.07
2018-05-21T15:01:25.704Z,5.17
2018-05-21T15:03:52.190Z,3.80
2018-05-21T15:06:18.357Z,5.23
2018-05-21T15:08:44.585Z,3.77
2018-05-21T15:11:10.984Z,5.90
2018-05-21T15:13:37.213Z,4.43
2018-05-21T15:16:03.562Z,5.10
2018-05-21T15:18:29.778Z,5.33
2018-05-21T15:20:56.027Z,4.97
2018-05-21T15:23:22.253Z,6.80
2018-05-21T15:25:48.528Z,4.43
2018-05-21T15:28:14.827Z,4.70
2018-05-21T15:30:41.036Z,5.17
2018-05-21T15:33:07.299Z,7.30
2018-05-21T15:35:33.517Z,4.80
2018-05-21T15:38:00.468Z,5.50
2018-05-21T15:40:26.747Z,5.00
2018-05-21T15:42:52.964Z,4.60
2018-05-21T15:45:19.197Z,5.73
2018-05-21T15:47:46.196Z,5.60
2018-05-21T15:50:12.424Z,6.33
2018-05-21T15:52:38.642Z,5.77
2018-05-21T15:55:05.674Z,5.23
2018-05-21T15:57:31.947Z,5.83
2018-05-21T15:59:58.162Z,5.33
2018-05-21T16:02:24.412Z,4.17
2018-05-21T16:04:50.618Z,6.83
2018-05-21T16:07:16.854Z,4.67
2018-05-21T16:09:43.137Z,5.20
2018-05-21T16:12:10.096Z,6.70
2018-05-21T16:14:36.322Z,6.00
2018-05-21T16:17:02.582Z,6.70
2018-05-21T16:19:29.575Z,5.00
2018-05-21T16:21:55.791Z,6.20
2018-05-21T16:24:22.913Z,4.87
2018-05-21T16:26:49.179Z,5.30
2018-05-21T16:29:16.207Z,5.07
2018-05-21T16:31:42.468Z,5.03
2018-05-21T16:34:10.171Z,5.23
2018-05-21T16:36:37.134Z,5.20
2018-05-21T16:39:03.473Z,6.20
2018-05-21T16:41:30.498Z,6.53
2018-05-21T16:43:56.669Z,6.47
2018-05-21T16:46:23.695Z,4.93
2018-05-21T16:48:49.912Z,5.97
2018-05-21T16:51:16.167Z,7.73
2018-05-21T16:53:42.435Z,6.70
2018-05-21T16:56:09.459Z,5.97
2018-05-21T16:58:35.698Z,9.40
2018-05-21T17:01:02.084Z,4.97
2018-05-21T17:03:29.050Z,17.37
2018-05-21T17:05:55.306Z,5.70
2018-05-21T17:08:21.680Z,7.10
2018-05-21T17:10:48.618Z,6.50
2018-05-21T17:13:14.836Z,8.13
2018-05-21T17:15:41.113Z,7.17
2018-05-21T17:18:07.328Z,7.20
2018-05-21T17:20:33.598Z,6.57
2018-05-21T17:22:59.897Z,11.23
2018-05-21T17:25:26.903Z,5.90
2018-05-21T17:27:53.166Z,9.33
2018-05-21T17:30:19.512Z,8.27
2018-05-21T17:32:45.785Z,5.73
2018-05-21T17:35:12.024Z,11.17
2018-05-21T17:37:38.280Z,7.03
2018-05-21T17:40:04.522Z,8.87
2018-05-21T17:42:30.810Z,6.60
2018-05-21T17:44:57.030Z,5.93
2018-05-21T17:47:23.244Z,5.63
2018-05-21T17:49:49.546Z,6.60
2018-05-21T17:52:16.593Z,7.93
2018-05-21T17:54:42.821Z,7.13
2018-05-21T17:57:09.097Z,5.60
2018-05-21T17:59:36.101Z,5.80
2018-05-21T18:02:02.430Z,7.53
2018-05-21T18:04:28.689Z,7.33
2018-05-21T18:06:54.977Z,9.03
2018-05-21T18:09:21.222Z,12.23
2018-05-21T18:11:48.198Z,9.50
2018-05-21T18:14:14.593Z,4.97
2018-05-21T18:16:40.829Z,5.40
2018-05-21T18:19:07.110Z,7.63
2018-05-21T18:21:34.110Z,9.40
2018-05-21T18:24:00.355Z,4.60
2018-05-21T18:26:26.660Z,9.00
2018-05-21T18:28:53.107Z,7.43
2018-05-21T18:31:19.422Z,11.47
2018-05-21T18:33:45.681Z,5.90
2018-05-21T18:36:12.923Z,8.70
2018-05-21T18:38:39.216Z,6.50
2018-05-21T18:41:05.519Z,7.83
2018-05-21T18:43:31.830Z,12.20
2018-05-21T18:45:58.092Z,7.43
2018-05-21T18:48:24.447Z,8.00
2018-05-21T18:50:50.716Z,6.80
2018-05-21T18:53:16.963Z,8.47
2018-05-21T18:55:43.244Z,13.20
2018-05-21T18:58:09.584Z,8.00
2018-05-21T19:00:35.847Z,6.47
2018-05-21T19:03:02.893Z,8.67
2018-05-21T19:05:29.218Z,5.93
2018-05-21T19:07:55.523Z,13.57
2018-05-21T19:10:21.818Z,6.47
2018-05-21T19:12:48.126Z,7.27
2018-05-21T19:15:14.532Z,9.87
2018-05-21T19:17:40.755Z,8.60
2018-05-21T19:20:07.080Z,5.70
2018-05-21T19:22:33.402Z,8.27
2018-05-21T19:24:59.680Z,8.67
2018-05-21T19:27:25.984Z,7.23
2018-05-21T19:29:52.485Z,5.53
2018-05-21T19:32:19.527Z,9.10
2018-05-21T19:34:45.830Z,9.50
2018-05-21T19:37:12.131Z,8.07
2018-05-21T19:39:39.136Z,7.10
2018-05-21T19:42:05.584Z,8.17
2018-05-21T19:44:31.940Z,6.23
2018-05-21T19:46:58.230Z,6.03
2018-05-21T19:49:26.080Z,11.93
2018-05-21T19:51:52.409Z,10.93
2018-05-21T19:54:18.692Z,8.23
2018-05-21T19:56:44.996Z,6.27
2018-05-21T19:59:11.308Z,6.43
2018-05-21T20:01:37.615Z,6.23
2018-05-21T20:04:04.679Z,6.53
2018-05-21T20:06:31.177Z,7.70
2018-05-21T20:08:57.462Z,7.63
2018-05-21T20:11:24.584Z,6.97
2018-05-21T20:13:51.661Z,9.80
2018-05-21T20:16:17.981Z,7.13
2018-05-21T20:18:44.479Z,7.27
2018-05-21T20:21:10.790Z,9.30
2018-05-21T20:23:37.048Z,7.70
2018-05-21T20:26:04.152Z,5.90
2018-05-21T20:28:30.453Z,11.07
2018-05-21T20:30:57.464Z,6.10
2018-05-21T20:33:23.786Z,7.30
2018-05-21T20:35:50.076Z,7.57
2018-05-21T20:38:16.358Z,14.40
2018-05-21T20:40:42.624Z,6.50
2018-05-21T20:43:08.879Z,6.90
2018-05-21T20:45:35.908Z,8.50
2018-05-21T20:48:02.231Z,8.57
2018-05-21T20:50:28.531Z,6.30
2018-05-21T20:52:54.821Z,8.60
2018-05-21T20:55:25.087Z,7.47
2018-05-21T20:57:51.413Z,9.37
2018-05-21T21:00:17.701Z,7.37
2018-05-21T21:02:43.975Z,6.10
2018-05-21T21:05:10.939Z,11.50
2018-05-21T21:07:37.187Z,9.20
2018-05-21T21:10:03.494Z,8.37
2018-05-21T21:12:29.733Z,7.00
2018-05-21T21:14:55.982Z,5.93
2018-05-21T21:17:22.983Z,9.70
2018-05-21T21:19:49.210Z,7.90
2018-05-21T21:22:15.437Z,7.23
2018-05-21T21:24:41.686Z,6.03
2018-05-21T21:27:07.904Z,7.73
2018-05-21T21:29:34.873Z,9.20
2018-05-21T21:32:01.868Z,7.20
2018-05-21T21:34:28.070Z,8.00
2018-05-21T21:36:54.327Z,5.60
2018-05-21T21:39:20.585Z,7.07
2018-05-21T21:41:46.833Z,7.17
2018-05-21T21:44:13.077Z,9.73
2018-05-21T21:46:39.321Z,8.43
2018-05-21T21:49:05.575Z,8.00
2018-05-21T21:51:31.794Z,9.30
2018-05-21T21:53:58.286Z,8.93
2018-05-21T21:56:25.239Z,8.63
2018-05-21T21:58:51.469Z,11.97
2018-05-21T22:01:17.908Z,8.47
2018-05-21T22:03:44.147Z,12.13
2018-05-21T22:06:10.374Z,6.00
2018-05-21T22:08:36.622Z,8.67
2018-05-21T22:11:02.844Z,8.37
2018-05-21T22:13:29.050Z,11.80
2018-05-21T22:15:56.073Z,9.67
2018-05-21T22:18:22.300Z,7.00
2018-05-21T22:20:48.527Z,7.80
2018-05-21T22:23:15.276Z,12.60
2018-05-21T22:25:41.538Z,8.03
2018-05-21T22:28:07.756Z,8.20
2018-05-21T22:30:34.156Z,9.00
2018-05-21T22:33:01.112Z,9.93
2018-05-21T22:35:28.066Z,10.83
2018-05-21T22:37:55.038Z,10.10
2018-05-21T22:40:21.996Z,9.17
2018-05-21T22:42:48.855Z,10.63
2018-05-21T22:45:15.134Z,8.50
2018-05-21T22:47:41.374Z,10.67
2018-05-21T22:50:07.610Z,11.33
2018-05-21T22:52:33.864Z,9.10
2018-05-21T22:55:00.098Z,7.90
2018-05-21T22:57:26.358Z,7.40
2018-05-21T22:59:52.714Z,8.30
2018-05-21T23:02:18.959Z,8.17
2018-05-21T23:04:45.915Z,13.10
2018-05-21T23:07:12.910Z,9.10
2018-05-21T23:09:39.869Z,8.87
2018-05-21T23:12:06.100Z,10.77
2018-05-21T23:14:32.437Z,7.47
2018-05-21T23:16:58.619Z,10.17
2018-05-21T23:19:24.822Z,9.10
2018-05-21T23:21:51.069Z,11.87
2018-05-21T23:24:17.287Z,11.43
2018-05-21T23:26:44.227Z,8.03
2018-05-21T23:29:10.478Z,12.50
2018-05-21T23:31:37.433Z,11.43
2018-05-21T23:34:04.393Z,7.83
2018-05-21T23:36:31.383Z,9.27
2018-05-21T23:38:57.618Z,7.70
2018-05-21T23:41:23.823Z,10.77
2018-05-21T23:43:50.083Z,9.63
2018-05-21T23:46:17.081Z,8.80
2018-05-21T23:48:43.284Z,11.90
2018-05-21T23:51:09.581Z,10.10
2018-05-21T23:53:35.762Z,9.80
2018-05-21T23:56:02.748Z,9.87
2018-05-21T23:58:29.141Z,11.40
